Huvudsida
METAR-TAF:

METAR-TAF

Flygplatser :

El Alto International Airport

La Paz, Bolivia

latitud: 16-31S, longitud: 068-11W, höjd: 4058 m

Aktuellt väderrapport

Denna rapport gjordes för 59 minuter sedan, klockan 07:00 UTC
Vind 3 kt från nord
Temperatur 1°C
Fuktighet 40%
Tryck 1036 hPa
Sikt 10 km eller mer

METAR: SLLP 220700Z 36003KT 9999 NSC 01/M11 Q1036

Tid: 03:59 (07:59 UTC)

Väderprognos

Denna rapport gjordes för 3 timmar och 57 minuter sedan, klockan 04:02 UTC
Prognos gäller från 22 kl. 06 UTC till 23 kl. 06 UTC
Vind 5 kt från nordost
Sikt 10 km eller mer
Få moln på en höjd av 1300 ft
Blir
från 22 kl. 15 UTC till 22 kl. 17 UTC
Vind 10 kt från väst/sydväst
Temporärt
från 22 kl. 19 UTC till 22 kl. 21 UTC
Vind 15 kt från väst i byarna ända upp till 25 kt
Blir
från 22 kl. 23 UTC till 23 kl. 02 UTC
Vind 5 kt från nordost

TAF: SLLP 220402Z 2206/2306 05005KT 9999 FEW013 TX17/2220Z TNM06/2210Z BECMG 2215/2217 24010KT TEMPO 2219/2221 27015G25KT BECMG 2223/2302 04005KT

Aktuella väderrapporter och prognoser från 4000 flygplatser (METAR- och TAF-rapporter).

De tillgängliga stationerna syns som gula och röda prickar på kartan.

För musen över prickarna för att se namnen på stationerna.

Klicka sedan för att få väderrapporter och prognoser.

För att ändra kartan: Klicka på de gröna knapparna med ett svart kors på för att zooma in; den gröna knappen med ett streck på för att zooma ut; eller på de gröna pilarna för angränsande kartor.


METAR-TAF: